sensor_id;sensor_type;location;lat;lon;timestamp;pressure;altitude;pressure_sealevel;temperature;humidity
6899;BME280;3488;42.616;23.350;2022-12-18T00:00:47;62706.78;;;6.86;100.00
6899;BME280;3488;42.616;23.350;2022-12-18T00:03:14;62716.53;;;6.93;100.00
6899;BME280;3488;42.616;23.350;2022-12-18T00:05:47;62720.13;;;6.97;100.00
6899;BME280;3488;42.616;23.350;2022-12-18T00:08:15;62717.13;;;6.99;100.00
6899;BME280;3488;42.616;23.350;2022-12-18T00:10:42;62692.88;;;6.75;100.00
6899;BME280;3488;42.616;23.350;2022-12-18T00:13:10;62702.59;;;6.80;100.00
6899;BME280;3488;42.616;23.350;2022-12-18T00:15:39;62690.25;;;6.70;100.00
6899;BME280;3488;42.616;23.350;2022-12-18T00:18:06;62701.66;;;6.84;100.00
6899;BME280;3488;42.616;23.350;2022-12-18T00:20:36;62708.78;;;6.86;100.00
6899;BME280;3488;42.616;23.350;2022-12-18T00:23:03;62697.50;;;6.77;100.00
6899;BME280;3488;42.616;23.350;2022-12-18T00:25:32;62699.97;;;6.75;100.00
6899;BME280;3488;42.616;23.350;2022-12-18T00:28:00;62703.63;;;6.81;100.00
6899;BME280;3488;42.616;23.350;2022-12-18T00:30:27;62691.78;;;6.69;100.00
6899;BME280;3488;42.616;23.350;2022-12-18T00:32:56;62690.31;;;6.73;100.00
6899;BME280;3488;42.616;23.350;2022-12-18T00:35:24;62688.25;;;6.71;100.00
6899;BME280;3488;42.616;23.350;2022-12-18T00:37:51;62680.00;;;6.63;100.00
6899;BME280;3488;42.616;23.350;2022-12-18T00:40:18;62687.19;;;6.67;100.00
6899;BME280;3488;42.616;23.350;2022-12-18T00:42:45;62689.25;;;6.69;100.00
6899;BME280;3488;42.616;23.350;2022-12-18T00:45:25;62696.97;;;6.77;100.00
6899;BME280;3488;42.616;23.350;2022-12-18T00:47:52;62685.22;;;6.70;100.00
6899;BME280;3488;42.616;23.350;2022-12-18T00:50:21;62685.22;;;6.70;100.00
6899;BME280;3488;42.616;23.350;2022-12-18T00:52:48;62671.75;;;6.55;100.00
6899;BME280;3488;42.616;23.350;2022-12-18T00:55:15;62675.91;;;6.61;100.00
6899;BME280;3488;42.616;23.350;2022-12-18T00:57:42;62683.00;;;6.61;100.00
6899;BME280;3488;42.616;23.350;2022-12-18T01:00:12;62682.03;;;6.62;100.00
6899;BME280;3488;42.616;23.350;2022-12-18T01:02:40;62686.19;;;6.69;100.00
6899;BME280;3488;42.616;23.350;2022-12-18T01:05:08;62673.72;;;6.52;100.00
6899;BME280;3488;42.616;23.350;2022-12-18T01:07:37;62652.63;;;6.34;100.00
6899;BME280;3488;42.616;23.350;2022-12-18T01:10:09;62653.09;;;6.32;100.00
6899;BME280;3488;42.616;23.350;2022-12-18T01:12:38;62664.00;;;6.47;100.00
6899;BME280;3488;42.616;23.350;2022-12-18T01:15:12;62649.06;;;6.33;100.00
6899;BME280;3488;42.616;23.350;2022-12-18T01:17:40;62626.84;;;6.09;100.00
6899;BME280;3488;42.616;23.350;2022-12-18T01:20:08;62631.56;;;6.16;100.00
6899;BME280;3488;42.616;23.350;2022-12-18T01:22:36;62631.03;;;6.15;100.00
6899;BME280;3488;42.616;23.350;2022-12-18T01:25:04;62633.63;;;6.18;100.00
6899;BME280;3488;42.616;23.350;2022-12-18T01:27:33;62637.69;;;6.19;100.00
6899;BME280;3488;42.616;23.350;2022-12-18T01:30:00;62605.22;;;5.88;100.00
6899;BME280;3488;42.616;23.350;2022-12-18T01:32:29;62607.31;;;5.92;100.00
6899;BME280;3488;42.616;23.350;2022-12-18T01:34:56;62605.81;;;5.93;100.00
6899;BME280;3488;42.616;23.350;2022-12-18T01:37:23;62586.16;;;5.71;100.00
6899;BME280;3488;42.616;23.350;2022-12-18T01:39:52;62590.81;;;5.76;100.00
6899;BME280;3488;42.616;23.350;2022-12-18T01:42:20;62576.91;;;5.62;100.00
6899;BME280;3488;42.616;23.350;2022-12-18T01:45:02;62579.47;;;5.65;100.00
6899;BME280;3488;42.616;23.350;2022-12-18T01:47:36;62581.47;;;5.64;100.00
6899;BME280;3488;42.616;23.350;2022-12-18T01:50:08;62584.59;;;5.67;100.00
6899;BME280;3488;42.616;23.350;2022-12-18T01:52:36;62589.78;;;5.75;100.00
6899;BME280;3488;42.616;23.350;2022-12-18T01:55:06;62574.38;;;5.62;100.00
6899;BME280;3488;42.616;23.350;2022-12-18T01:57:34;62579.47;;;5.65;100.00
6899;BME280;3488;42.616;23.350;2022-12-18T02:00:06;62583.50;;;5.64;100.00
6899;BME280;3488;42.616;23.350;2022-12-18T02:02:34;62581.53;;;5.67;100.00
6899;BME280;3488;42.616;23.350;2022-12-18T02:05:02;62565.00;;;5.48;100.00
6899;BME280;3488;42.616;23.350;2022-12-18T02:07:37;62572.69;;;5.53;100.00
6899;BME280;3488;42.616;23.350;2022-12-18T02:10:15;62550.13;;;5.36;100.00
6899;BME280;3488;42.616;23.350;2022-12-18T02:12:49;62561.41;;;5.45;100.00
6899;BME280;3488;42.616;23.350;2022-12-18T02:15:24;62536.69;;;5.21;100.00
6899;BME280;3488;42.616;23.350;2022-12-18T02:17:57;62535.13;;;5.19;100.00
6899;BME280;3488;42.616;23.350;2022-12-18T02:20:33;62542.81;;;5.24;100.00
6899;BME280;3488;42.616;23.350;2022-12-18T02:23:08;62542.38;;;5.29;100.00
6899;BME280;3488;42.616;23.350;2022-12-18T02:26:02;62545.38;;;5.27;100.00
6899;BME280;3488;42.616;23.350;2022-12-18T02:28:34;62541.72;;;5.21;100.00
6899;BME280;3488;42.616;23.350;2022-12-18T02:31:05;62543.94;;;5.30;100.00
6899;BME280;3488;42.616;23.350;2022-12-18T02:33:34;62559.91;;;5.46;100.00
6899;BME280;3488;42.616;23.350;2022-12-18T02:36:03;62534.19;;;5.23;100.00
6899;BME280;3488;42.616;23.350;2022-12-18T02:38:31;62544.91;;;5.29;100.00
6899;BME280;3488;42.616;23.350;2022-12-18T02:41:00;62541.41;;;5.30;100.00
6899;BME280;3488;42.616;23.350;2022-12-18T02:43:29;62516.03;;;4.98;100.00
6899;BME280;3488;42.616;23.350;2022-12-18T02:45:58;62523.81;;;5.08;100.00
6899;BME280;3488;42.616;23.350;2022-12-18T02:48:29;62526.38;;;5.11;100.00
6899;BME280;3488;42.616;23.350;2022-12-18T02:51:03;62526.50;;;5.16;100.00
6899;BME280;3488;42.616;23.350;2022-12-18T02:53:39;62526.31;;;5.08;100.00
6899;BME280;3488;42.616;23.350;2022-12-18T02:56:15;62500.16;;;4.88;100.00
6899;BME280;3488;42.616;23.350;2022-12-18T02:58:50;62477.47;;;4.63;100.00
6899;BME280;3488;42.616;23.350;2022-12-18T03:01:26;62503.16;;;4.86;100.00
6899;BME280;3488;42.616;23.350;2022-12-18T03:04:01;62495.56;;;4.83;100.00
6899;BME280;3488;42.616;23.350;2022-12-18T03:06:35;62485.66;;;4.68;100.00
6899;BME280;3488;42.616;23.350;2022-12-18T03:09:07;62490.34;;;4.76;100.00
6899;BME280;3488;42.616;23.350;2022-12-18T03:11:40;62467.81;;;4.58;100.00
6899;BME280;3488;42.616;23.350;2022-12-18T03:14:26;62471.34;;;4.59;100.00
6899;BME280;3488;42.616;23.350;2022-12-18T03:17:00;62474.94;;;4.63;100.00
6899;BME280;3488;42.616;23.350;2022-12-18T03:19:29;62475.47;;;4.63;100.00
6899;BME280;3488;42.616;23.350;2022-12-18T03:22:01;62464.59;;;4.50;100.00
6899;BME280;3488;42.616;23.350;2022-12-18T03:24:31;62489.78;;;4.72;100.00
6899;BME280;3488;42.616;23.350;2022-12-18T03:27:02;62485.72;;;4.71;100.00
6899;BME280;3488;42.616;23.350;2022-12-18T03:29:35;62476.94;;;4.62;100.00
6899;BME280;3488;42.616;23.350;2022-12-18T03:32:06;62491.97;;;4.82;100.00
6899;BME280;3488;42.616;23.350;2022-12-18T03:34:38;62503.31;;;4.93;100.00
6899;BME280;3488;42.616;23.350;2022-12-18T03:37:06;62513.50;;;4.98;100.00
6899;BME280;3488;42.616;23.350;2022-12-18T03:39:34;62490.34;;;4.76;100.00
6899;BME280;3488;42.616;23.350;2022-12-18T03:42:06;62499.66;;;4.87;100.00
6899;BME280;3488;42.616;23.350;2022-12-18T03:44:39;62498.06;;;4.83;100.00
6899;BME280;3488;42.616;23.350;2022-12-18T03:47:14;62502.69;;;4.88;100.00
6899;BME280;3488;42.616;23.350;2022-12-18T03:49:46;62490.97;;;4.81;100.00
6899;BME280;3488;42.616;23.350;2022-12-18T03:52:17;62480.06;;;4.65;100.00
6899;BME280;3488;42.616;23.350;2022-12-18T03:54:46;62478.56;;;4.66;100.00
6899;BME280;3488;42.616;23.350;2022-12-18T03:57:17;62472.31;;;4.58;100.00
6899;BME280;3488;42.616;23.350;2022-12-18T03:59:46;62444.09;;;4.33;100.00
6899;BME280;3488;42.616;23.350;2022-12-18T04:02:15;62437.38;;;4.26;100.00
6899;BME280;3488;42.616;23.350;2022-12-18T04:04:44;62436.88;;;4.26;100.00
6899;BME280;3488;42.616;23.350;2022-12-18T04:07:13;62431.16;;;4.18;100.00
6899;BME280;3488;42.616;23.350;2022-12-18T04:09:42;62434.25;;;4.21;100.00
6899;BME280;3488;42.616;23.350;2022-12-18T04:12:10;62439.97;;;4.29;100.00
6899;BME280;3488;42.616;23.350;2022-12-18T04:14:38;62411.72;;;4.04;100.00
6899;BME280;3488;42.616;23.350;2022-12-18T04:17:05;62431.16;;;4.18;100.00
6899;BME280;3488;42.616;23.350;2022-12-18T04:19:32;62434.34;;;4.26;100.00
6899;BME280;3488;42.616;23.350;2022-12-18T04:21:59;62422.47;;;4.12;100.00
6899;BME280;3488;42.616;23.350;2022-12-18T04:24:26;62437.38;;;4.26;100.00
6899;BME280;3488;42.616;23.350;2022-12-18T04:26:52;62438.34;;;4.25;100.00
6899;BME280;3488;42.616;23.350;2022-12-18T04:29:19;62452.81;;;4.41;100.00
6899;BME280;3488;42.616;23.350;2022-12-18T04:31:47;62459.41;;;4.43;100.00
6899;BME280;3488;42.616;23.350;2022-12-18T04:34:14;62444.66;;;4.36;100.00
6899;BME280;3488;42.616;23.350;2022-12-18T04:36:41;62444.53;;;4.31;100.00
6899;BME280;3488;42.616;23.350;2022-12-18T04:39:08;62440.88;;;4.25;100.00
6899;BME280;3488;42.616;23.350;2022-12-18T04:41:35;62432.28;;;4.24;100.00
6899;BME280;3488;42.616;23.350;2022-12-18T04:44:02;62436.34;;;4.25;100.00
6899;BME280;3488;42.616;23.350;2022-12-18T04:46:29;62435.44;;;4.29;100.00
6899;BME280;3488;42.616;23.350;2022-12-18T04:48:58;62429.22;;;4.21;100.00
6899;BME280;3488;42.616;23.350;2022-12-18T04:51:25;62439.91;;;4.26;100.00
6899;BME280;3488;42.616;23.350;2022-12-18T04:53:52;62430.59;;;4.15;100.00
6899;BME280;3488;42.616;23.350;2022-12-18T04:56:19;62420.97;;;4.13;100.00
6899;BME280;3488;42.616;23.350;2022-12-18T04:58:46;62423.00;;;4.12;100.00
6899;BME280;3488;42.616;23.350;2022-12-18T05:01:14;62435.78;;;4.22;100.00
6899;BME280;3488;42.616;23.350;2022-12-18T05:03:42;62435.84;;;4.25;100.00
6899;BME280;3488;42.616;23.350;2022-12-18T05:06:10;62423.59;;;4.18;100.00
6899;BME280;3488;42.616;23.350;2022-12-18T05:08:37;62435.22;;;4.19;100.00
6899;BME280;3488;42.616;23.350;2022-12-18T05:11:06;62426.06;;;4.15;100.00
6899;BME280;3488;42.616;23.350;2022-12-18T05:13:34;62429.56;;;4.14;100.00
6899;BME280;3488;42.616;23.350;2022-12-18T05:16:02;62431.72;;;4.21;100.00
6899;BME280;3488;42.616;23.350;2022-12-18T05:18:29;62425.56;;;4.15;100.00
6899;BME280;3488;42.616;23.350;2022-12-18T05:20:56;62434.25;;;4.21;100.00
6899;BME280;3488;42.616;23.350;2022-12-18T05:23:24;62418.34;;;4.08;100.00
6899;BME280;3488;42.616;23.350;2022-12-18T05:25:52;62416.25;;;4.03;100.00
6899;BME280;3488;42.616;23.350;2022-12-18T05:28:20;62413.78;;;4.06;100.00
6899;BME280;3488;42.616;23.350;2022-12-18T05:30:48;62418.81;;;4.06;100.00
6899;BME280;3488;42.616;23.350;2022-12-18T05:33:16;62435.78;;;4.22;100.00
6899;BME280;3488;42.616;23.350;2022-12-18T05:35:43;62435.28;;;4.22;100.00
6899;BME280;3488;42.616;23.350;2022-12-18T05:38:10;62438.41;;;4.27;100.00
6899;BME280;3488;42.616;23.350;2022-12-18T05:40:45;62432.19;;;4.19;100.00
6899;BME280;3488;42.616;23.350;2022-12-18T05:43:12;62433.84;;;4.25;100.00
6899;BME280;3488;42.616;23.350;2022-12-18T05:45:40;62429.16;;;4.18;100.00
6899;BME280;3488;42.616;23.350;2022-12-18T05:48:07;62439.34;;;4.23;100.00
6899;BME280;3488;42.616;23.350;2022-12-18T05:53:01;62430.06;;;4.14;100.00
6899;BME280;3488;42.616;23.350;2022-12-18T05:55:29;62426.59;;;4.16;100.00
6899;BME280;3488;42.616;23.350;2022-12-18T05:58:01;62417.38;;;4.09;100.00
6899;BME280;3488;42.616;23.350;2022-12-18T06:00:27;62406.06;;;3.98;100.00
6899;BME280;3488;42.616;23.350;2022-12-18T06:02:54;62398.25;;;3.86;100.00
6899;BME280;3488;42.616;23.350;2022-12-18T06:05:21;62411.56;;;3.96;100.00
6899;BME280;3488;42.616;23.350;2022-12-18T06:07:49;62409.56;;;3.97;100.00
6899;BME280;3488;42.616;23.350;2022-12-18T06:10:16;62406.88;;;3.89;100.00
6899;BME280;3488;42.616;23.350;2022-12-18T06:12:43;62405.44;;;3.93;100.00
6899;BME280;3488;42.616;23.350;2022-12-18T06:15:11;62412.13;;;3.99;100.00
6899;BME280;3488;42.616;23.350;2022-12-18T06:17:38;62407.50;;;3.95;100.00
6899;BME280;3488;42.616;23.350;2022-12-18T06:20:06;62411.22;;;4.03;100.00
6899;BME280;3488;42.616;23.350;2022-12-18T06:22:33;62417.78;;;4.05;100.00
6899;BME280;3488;42.616;23.350;2022-12-18T06:25:00;62416.81;;;4.06;100.00
6899;BME280;3488;42.616;23.350;2022-12-18T06:27:27;62423.94;;;4.11;100.00
6899;BME280;3488;42.616;23.350;2022-12-18T06:29:54;62397.81;;;3.90;100.00
6899;BME280;3488;42.616;23.350;2022-12-18T06:32:22;62408.59;;;3.98;100.00
6899;BME280;3488;42.616;23.350;2022-12-18T06:34:49;62417.25;;;4.04;100.00
6899;BME280;3488;42.616;23.350;2022-12-18T06:37:16;62418.81;;;4.06;100.00
6899;BME280;3488;42.616;23.350;2022-12-18T06:39:43;62415.72;;;4.03;100.00
6899;BME280;3488;42.616;23.350;2022-12-18T06:42:11;62415.44;;;4.12;100.00
6899;BME280;3488;42.616;23.350;2022-12-18T06:44:38;62419.88;;;4.09;100.00
6899;BME280;3488;42.616;23.350;2022-12-18T06:47:04;62424.56;;;4.16;100.00
6899;BME280;3488;42.616;23.350;2022-12-18T06:49:33;62425.56;;;4.15;100.00
6899;BME280;3488;42.616;23.350;2022-12-18T06:52:00;62402.91;;;3.93;100.00
6899;BME280;3488;42.616;23.350;2022-12-18T06:54:27;62404.91;;;3.92;100.00
6899;BME280;3488;42.616;23.350;2022-12-18T06:56:53;62393.09;;;3.81;100.00
6899;BME280;3488;42.616;23.350;2022-12-18T06:59:20;62395.66;;;3.83;100.00
6899;BME280;3488;42.616;23.350;2022-12-18T07:01:47;62411.09;;;3.98;100.00
6899;BME280;3488;42.616;23.350;2022-12-18T07:04:14;62419.84;;;4.07;100.00
6899;BME280;3488;42.616;23.350;2022-12-18T07:06:43;62439.84;;;4.24;100.00
6899;BME280;3488;42.616;23.350;2022-12-18T07:09:09;62419.84;;;4.07;100.00
6899;BME280;3488;42.616;23.350;2022-12-18T07:11:36;62398.81;;;3.89;100.00
6899;BME280;3488;42.616;23.350;2022-12-18T07:14:03;62427.06;;;4.14;100.00
6899;BME280;3488;42.616;23.350;2022-12-18T07:16:30;62443.50;;;4.30;100.00
6899;BME280;3488;42.616;23.350;2022-12-18T07:18:57;62434.25;;;4.21;100.00
6899;BME280;3488;42.616;23.350;2022-12-18T07:21:24;62439.97;;;4.29;100.00
6899;BME280;3488;42.616;23.350;2022-12-18T07:23:55;62446.09;;;4.32;100.00
6899;BME280;3488;42.616;23.350;2022-12-18T07:26:23;62448.09;;;4.32;100.00
6899;BME280;3488;42.616;23.350;2022-12-18T07:28:50;62440.41;;;4.27;100.00
6899;BME280;3488;42.616;23.350;2022-12-18T07:31:18;62449.63;;;4.33;100.00
6899;BME280;3488;42.616;23.350;2022-12-18T07:33:46;62445.09;;;4.34;100.00
6899;BME280;3488;42.616;23.350;2022-12-18T07:36:13;62437.34;;;4.24;100.00
6899;BME280;3488;42.616;23.350;2022-12-18T07:38:40;62441.41;;;4.25;100.00
6899;BME280;3488;42.616;23.350;2022-12-18T07:41:11;62436.25;;;4.20;100.00
6899;BME280;3488;42.616;23.350;2022-12-18T07:43:39;62436.28;;;4.23;100.00
6899;BME280;3488;42.616;23.350;2022-12-18T07:46:07;62445.06;;;4.31;100.00
6899;BME280;3488;42.616;23.350;2022-12-18T07:48:35;62448.66;;;4.35;100.00
6899;BME280;3488;42.616;23.350;2022-12-18T07:51:04;62435.34;;;4.24;100.00
6899;BME280;3488;42.616;23.350;2022-12-18T07:53:52;62418.31;;;4.05;100.00
6899;BME280;3488;42.616;23.350;2022-12-18T07:56:23;62436.88;;;4.26;100.00
6899;BME280;3488;42.616;23.350;2022-12-18T07:58:50;62445.53;;;4.29;100.00
6899;BME280;3488;42.616;23.350;2022-12-18T08:01:17;62451.78;;;4.40;100.00
6899;BME280;3488;42.616;23.350;2022-12-18T08:03:44;62449.78;;;4.41;100.00
6899;BME280;3488;42.616;23.350;2022-12-18T08:06:14;62467.75;;;4.56;100.00
6899;BME280;3488;42.616;23.350;2022-12-18T08:08:42;62477.31;;;4.55;100.00
6899;BME280;3488;42.616;23.350;2022-12-18T08:11:09;62463.63;;;4.52;100.00
6899;BME280;3488;42.616;23.350;2022-12-18T08:13:37;62460.53;;;4.49;100.00
6899;BME280;3488;42.616;23.350;2022-12-18T08:16:06;62426.06;;;4.15;100.00
6899;BME280;3488;42.616;23.350;2022-12-18T08:18:34;62440.31;;;4.22;100.00
6899;BME280;3488;42.616;23.350;2022-12-18T08:21:11;62445.09;;;4.34;100.00
6899;BME280;3488;42.616;23.350;2022-12-18T08:23:39;62430.69;;;4.20;100.00
6899;BME280;3488;42.616;23.350;2022-12-18T08:26:06;62444.59;;;4.33;100.00
6899;BME280;3488;42.616;23.350;2022-12-18T08:28:34;62456.88;;;4.43;100.00
6899;BME280;3488;42.616;23.350;2022-12-18T08:31:02;62456.88;;;4.43;100.00
6899;BME280;3488;42.616;23.350;2022-12-18T08:33:29;62463.00;;;4.46;100.00
6899;BME280;3488;42.616;23.350;2022-12-18T08:35:58;62447.63;;;4.34;100.00
6899;BME280;3488;42.616;23.350;2022-12-18T08:38:25;62463.56;;;4.49;100.00
6899;BME280;3488;42.616;23.350;2022-12-18T08:40:58;62475.41;;;4.61;100.00
6899;BME280;3488;42.616;23.350;2022-12-18T08:43:26;62465.19;;;4.53;100.00
6899;BME280;3488;42.616;23.350;2022-12-18T08:46:12;62466.75;;;4.57;100.00
6899;BME280;3488;42.616;23.350;2022-12-18T08:48:40;62486.22;;;4.71;100.00
6899;BME280;3488;42.616;23.350;2022-12-18T08:51:06;62483.69;;;4.71;100.00
6899;BME280;3488;42.616;23.350;2022-12-18T08:53:35;62484.13;;;4.67;100.00
6899;BME280;3488;42.616;23.350;2022-12-18T08:56:03;62491.81;;;4.74;100.00
6899;BME280;3488;42.616;23.350;2022-12-18T08:58:30;62486.69;;;4.69;100.00
6899;BME280;3488;42.616;23.350;2022-12-18T09:00:59;62494.41;;;4.77;100.00
6899;BME280;3488;42.616;23.350;2022-12-18T09:03:28;62482.13;;;4.67;100.00
6899;BME280;3488;42.616;23.350;2022-12-18T09:05:55;62494.47;;;4.80;100.00
6899;BME280;3488;42.616;23.350;2022-12-18T09:08:22;62490.91;;;4.79;100.00
6899;BME280;3488;42.616;23.350;2022-12-18T09:10:52;62490.88;;;4.76;100.00
6899;BME280;3488;42.616;23.350;2022-12-18T09:13:22;62485.25;;;4.73;100.00
6899;BME280;3488;42.616;23.350;2022-12-18T09:15:51;62490.44;;;4.81;100.00
6899;BME280;3488;42.616;23.350;2022-12-18T09:18:20;62490.91;;;4.79;100.00
6899;BME280;3488;42.616;23.350;2022-12-18T09:21:54;62498.00;;;4.81;100.00
6899;BME280;3488;42.616;23.350;2022-12-18T09:24:14;62488.84;;;4.77;100.00
6899;BME280;3488;42.616;23.350;2022-12-18T09:26:42;62472.38;;;4.60;100.00
6899;BME280;3488;42.616;23.350;2022-12-18T09:29:09;62445.09;;;4.34;100.00
6899;BME280;3488;42.616;23.350;2022-12-18T09:31:36;62462.56;;;4.48;100.00
6899;BME280;3488;42.616;23.350;2022-12-18T09:34:34;62457.97;;;4.46;100.00
6899;BME280;3488;42.616;23.350;2022-12-18T09:37:03;62476.94;;;4.62;100.00
6899;BME280;3488;42.616;23.350;2022-12-18T09:39:30;62486.19;;;4.69;100.00
6899;BME280;3488;42.616;23.350;2022-12-18T09:41:58;62481.13;;;4.69;100.00
6899;BME280;3488;42.616;23.350;2022-12-18T09:44:27;62490.34;;;4.76;100.00
6899;BME280;3488;42.616;23.350;2022-12-18T09:47:06;62443.00;;;4.29;100.00
6899;BME280;3488;42.616;23.350;2022-12-18T09:49:39;62458.38;;;4.42;100.00
6899;BME280;3488;42.616;23.350;2022-12-18T09:52:14;62475.47;;;4.63;100.00
6899;BME280;3488;42.616;23.350;2022-12-18T09:54:45;62477.00;;;4.65;100.00
6899;BME280;3488;42.616;23.350;2022-12-18T09:57:15;62500.13;;;4.85;100.00
6899;BME280;3488;42.616;23.350;2022-12-18T09:59:47;62503.69;;;4.86;100.00
6899;BME280;3488;42.616;23.350;2022-12-18T10:02:18;62508.41;;;4.96;100.00
6899;BME280;3488;42.616;23.350;2022-12-18T10:04:54;62485.75;;;4.73;100.00
6899;BME280;3488;42.616;23.350;2022-12-18T10:07:31;62464.13;;;4.52;100.00
6899;BME280;3488;42.616;23.350;2022-12-18T10:10:07;62477.53;;;4.65;100.00
6899;BME280;3488;42.616;23.350;2022-12-18T10:12:46;62483.69;;;4.71;100.00
6899;BME280;3488;42.616;23.350;2022-12-18T10:15:21;62471.34;;;4.59;100.00
6899;BME280;3488;42.616;23.350;2022-12-18T10:17:53;62465.69;;;4.54;100.00
6899;BME280;3488;42.616;23.350;2022-12-18T10:20:29;62501.19;;;4.89;100.00
6899;BME280;3488;42.616;23.350;2022-12-18T10:23:05;62455.94;;;4.47;100.00
6899;BME280;3488;42.616;23.350;2022-12-18T10:25:41;62398.88;;;3.91;100.00
6899;BME280;3488;42.616;23.350;2022-12-18T10:28:13;62418.34;;;4.08;100.00
6899;BME280;3488;42.616;23.350;2022-12-18T10:30:42;62456.31;;;4.40;100.00
6899;BME280;3488;42.616;23.350;2022-12-18T10:33:11;62475.94;;;4.61;100.00
6899;BME280;3488;42.616;23.350;2022-12-18T10:35:41;62479.63;;;4.70;100.00
6899;BME280;3488;42.616;23.350;2022-12-18T10:38:24;62439.50;;;4.31;100.00
6899;BME280;3488;42.616;23.350;2022-12-18T10:40:52;62472.38;;;4.60;100.00
6899;BME280;3488;42.616;23.350;2022-12-18T10:43:21;62483.59;;;4.66;100.00
6899;BME280;3488;42.616;23.350;2022-12-18T10:46:00;62487.75;;;4.73;100.00
6899;BME280;3488;42.616;23.350;2022-12-18T10:48:28;62496.00;;;4.81;100.00
6899;BME280;3488;42.616;23.350;2022-12-18T10:50:55;62494.03;;;4.84;100.00
6899;BME280;3488;42.616;23.350;2022-12-18T10:53:26;62483.19;;;4.71;100.00
6899;BME280;3488;42.616;23.350;2022-12-18T10:55:55;62479.59;;;4.67;100.00
6899;BME280;3488;42.616;23.350;2022-12-18T10:58:26;62481.63;;;4.69;100.00
6899;BME280;3488;42.616;23.350;2022-12-18T11:01:11;62483.22;;;4.73;100.00
6899;BME280;3488;42.616;23.350;2022-12-18T11:03:40;62498.06;;;4.83;100.00
6899;BME280;3488;42.616;23.350;2022-12-18T11:06:10;62504.34;;;4.94;100.00
6899;BME280;3488;42.616;23.350;2022-12-18T11:08:39;62485.75;;;4.73;100.00
6899;BME280;3488;42.616;23.350;2022-12-18T11:11:15;62469.38;;;4.62;100.00
6899;BME280;3488;42.616;23.350;2022-12-18T11:13:54;62458.94;;;4.45;99.51
6899;BME280;3488;42.616;23.350;2022-12-18T11:16:24;62446.03;;;4.30;99.37
6899;BME280;3488;42.616;23.350;2022-12-18T11:18:52;62451.78;;;4.40;98.82
6899;BME280;3488;42.616;23.350;2022-12-18T11:21:19;62455.84;;;4.42;97.07
6899;BME280;3488;42.616;23.350;2022-12-18T11:23:49;62449.72;;;4.38;96.45
6899;BME280;3488;42.616;23.350;2022-12-18T11:26:17;62456.44;;;4.45;97.38
6899;BME280;3488;42.616;23.350;2022-12-18T11:28:47;62449.72;;;4.38;96.50
6899;BME280;3488;42.616;23.350;2022-12-18T11:31:24;62439.91;;;4.26;97.58
6899;BME280;3488;42.616;23.350;2022-12-18T11:33:58;62457.88;;;4.41;96.79
6899;BME280;3488;42.616;23.350;2022-12-18T11:36:31;62433.72;;;4.20;93.56
6899;BME280;3488;42.616;23.350;2022-12-18T11:39:10;62432.22;;;4.21;94.80
6899;BME280;3488;42.616;23.350;2022-12-18T11:41:45;62436.34;;;4.25;94.80
6899;BME280;3488;42.616;23.350;2022-12-18T11:44:38;62433.16;;;4.17;95.66
6899;BME280;3488;42.616;23.350;2022-12-18T11:47:15;62425.00;;;4.12;95.82
6899;BME280;3488;42.616;23.350;2022-12-18T11:49:47;62431.72;;;4.21;93.73
6899;BME280;3488;42.616;23.350;2022-12-18T11:52:19;62436.34;;;4.25;92.11
6899;BME280;3488;42.616;23.350;2022-12-18T11:54:52;62420.47;;;4.12;91.12
6899;BME280;3488;42.616;23.350;2022-12-18T11:57:29;62433.22;;;4.20;89.04
6899;BME280;3488;42.616;23.350;2022-12-18T12:00:04;62430.19;;;4.19;90.03
6899;BME280;3488;42.616;23.350;2022-12-18T12:02:51;62432.19;;;4.19;90.07
6899;BME280;3488;42.616;23.350;2022-12-18T12:05:40;62425.50;;;4.12;91.20
6899;BME280;3488;42.616;23.350;2022-12-18T12:08:14;62425.03;;;4.14;91.72
6899;BME280;3488;42.616;23.350;2022-12-18T12:10:55;62438.81;;;4.23;93.12
6899;BME280;3488;42.616;23.350;2022-12-18T12:13:30;62444.53;;;4.31;94.02
6899;BME280;3488;42.616;23.350;2022-12-18T12:16:11;62434.25;;;4.21;93.83
6899;BME280;3488;42.616;23.350;2022-12-18T12:18:56;62443.03;;;4.32;95.28
6899;BME280;3488;42.616;23.350;2022-12-18T12:21:35;62419.88;;;4.09;96.25
6899;BME280;3488;42.616;23.350;2022-12-18T12:24:12;62413.66;;;4.01;96.98
6899;BME280;3488;42.616;23.350;2022-12-18T12:26:52;62431.72;;;4.21;96.48
6899;BME280;3488;42.616;23.350;2022-12-18T12:29:33;62430.13;;;4.17;96.10
6899;BME280;3488;42.616;23.350;2022-12-18T12:32:12;62413.66;;;4.01;97.63
6899;BME280;3488;42.616;23.350;2022-12-18T12:34:50;62420.94;;;4.10;97.15
6899;BME280;3488;42.616;23.350;2022-12-18T12:37:27;62434.25;;;4.21;96.86
6899;BME280;3488;42.616;23.350;2022-12-18T12:39:58;62432.19;;;4.19;97.24
6899;BME280;3488;42.616;23.350;2022-12-18T12:42:31;62443.00;;;4.29;96.48
6899;BME280;3488;42.616;23.350;2022-12-18T12:45:21;62438.00;;;4.32;96.42
6899;BME280;3488;42.616;23.350;2022-12-18T12:47:51;62452.75;;;4.39;95.21
6899;BME280;3488;42.616;23.350;2022-12-18T12:50:20;62448.09;;;4.32;94.45
6899;BME280;3488;42.616;23.350;2022-12-18T12:52:51;62456.31;;;4.40;95.15
6899;BME280;3488;42.616;23.350;2022-12-18T12:55:21;62459.44;;;4.45;95.90
6899;BME280;3488;42.616;23.350;2022-12-18T12:57:56;62459.41;;;4.43;95.07
6899;BME280;3488;42.616;23.350;2022-12-18T13:00:32;62445.00;;;4.29;95.19
6899;BME280;3488;42.616;23.350;2022-12-18T13:03:08;62462.50;;;4.46;95.48
6899;BME280;3488;42.616;23.350;2022-12-18T13:05:46;62455.38;;;4.44;96.36
6899;BME280;3488;42.616;23.350;2022-12-18T13:08:24;62466.19;;;4.54;95.05
6899;BME280;3488;42.616;23.350;2022-12-18T13:10:54;62470.84;;;4.59;95.46
6899;BME280;3488;42.616;23.350;2022-12-18T13:13:53;62440.94;;;4.27;96.53
6899;BME280;3488;42.616;23.350;2022-12-18T13:16:21;62446.69;;;4.38;96.17
6899;BME280;3488;42.616;23.350;2022-12-18T13:18:49;62447.63;;;4.34;96.58
6899;BME280;3488;42.616;23.350;2022-12-18T13:21:21;62449.69;;;4.36;97.01
6899;BME280;3488;42.616;23.350;2022-12-18T13:23:50;62457.41;;;4.43;98.08
6899;BME280;3488;42.616;23.350;2022-12-18T13:26:32;62454.81;;;4.41;98.17
6899;BME280;3488;42.616;23.350;2022-12-18T13:29:01;62456.38;;;4.42;97.87
6899;BME280;3488;42.616;23.350;2022-12-18T13:34:33;62443.03;;;4.32;98.65
6899;BME280;3488;42.616;23.350;2022-12-18T13:43:30;62446.13;;;4.35;99.21